createdAt,value
2023-12-14T00:01:19.888Z,0.95
2023-12-14T00:03:46.770Z,1.10
2023-12-14T00:06:14.811Z,0.90
2023-12-14T00:08:41.891Z,0.80
2023-12-14T00:11:10.367Z,0.75
2023-12-14T00:13:37.614Z,1.00
2023-12-14T00:16:05.048Z,1.00
2023-12-14T00:18:31.869Z,0.60
2023-12-14T00:20:58.713Z,0.80
2023-12-14T00:23:25.731Z,0.90
2023-12-14T00:25:52.527Z,0.90
2023-12-14T00:28:19.366Z,0.70
2023-12-14T00:30:46.184Z,0.95
2023-12-14T00:33:13.057Z,0.70
2023-12-14T00:35:39.865Z,0.80
2023-12-14T00:38:06.751Z,0.82
2023-12-14T00:40:33.999Z,0.90
2023-12-14T00:43:00.778Z,0.90
2023-12-14T00:45:27.484Z,1.10
2023-12-14T00:47:54.247Z,1.27
2023-12-14T00:50:21.046Z,0.90
2023-12-14T00:52:47.805Z,1.10
2023-12-14T00:55:14.575Z,1.45
2023-12-14T00:57:41.405Z,1.33
2023-12-14T01:00:10.570Z,1.35
2023-12-14T01:02:37.880Z,1.20
2023-12-14T01:05:05.132Z,1.17
2023-12-14T01:07:31.903Z,1.10
2023-12-14T01:09:58.630Z,1.10
2023-12-14T01:12:25.410Z,0.93
2023-12-14T01:14:52.138Z,1.00
2023-12-14T01:17:19.536Z,1.00
2023-12-14T01:19:46.290Z,1.40
2023-12-14T01:22:13.066Z,1.58
2023-12-14T01:24:39.789Z,1.33
2023-12-14T01:27:06.547Z,1.55
2023-12-14T01:29:33.280Z,2.00
2023-12-14T01:32:00.107Z,2.08
2023-12-14T01:34:28.077Z,2.30
2023-12-14T01:36:54.840Z,2.22
2023-12-14T01:39:21.577Z,2.40
2023-12-14T01:41:50.310Z,2.92
2023-12-14T01:44:17.149Z,2.80
2023-12-14T01:46:43.895Z,3.00
2023-12-14T01:49:10.729Z,3.20
2023-12-14T01:51:37.466Z,3.42
2023-12-14T01:54:04.191Z,3.08
2023-12-14T01:56:30.911Z,2.83
2023-12-14T01:58:57.705Z,2.85
2023-12-14T02:01:39.419Z,2.85
2023-12-14T02:04:08.096Z,2.25
2023-12-14T02:06:34.930Z,2.60
2023-12-14T02:09:01.717Z,3.13
2023-12-14T02:11:28.590Z,3.17
2023-12-14T02:13:55.379Z,2.88
2023-12-14T02:16:22.156Z,3.35
2023-12-14T02:18:49.040Z,3.30
2023-12-14T02:21:15.830Z,2.90
2023-12-14T02:23:46.491Z,2.85
2023-12-14T02:26:14.124Z,3.00
2023-12-14T02:28:40.990Z,2.85
2023-12-14T02:31:08.107Z,3.00
2023-12-14T02:33:34.935Z,3.10
2023-12-14T02:36:01.892Z,2.80
2023-12-14T02:38:28.696Z,2.88
2023-12-14T02:40:55.684Z,2.85
2023-12-14T02:43:24.603Z,2.75
2023-12-14T02:45:51.434Z,2.97
2023-12-14T02:48:18.347Z,3.13
2023-12-14T02:50:45.104Z,3.00
2023-12-14T02:53:11.845Z,3.42
2023-12-14T02:55:38.908Z,4.07
2023-12-14T02:58:05.666Z,3.63
2023-12-14T03:00:32.501Z,4.43
2023-12-14T03:02:59.207Z,4.38
2023-12-14T03:05:25.959Z,4.60
2023-12-14T03:07:52.788Z,4.20
2023-12-14T03:10:19.791Z,4.38
2023-12-14T03:12:46.534Z,4.32
2023-12-14T03:15:13.280Z,4.53
2023-12-14T03:17:40.039Z,4.50
2023-12-14T03:20:07.631Z,4.38
2023-12-14T03:22:35.126Z,4.65
2023-12-14T03:25:02.083Z,4.55
2023-12-14T03:27:28.825Z,4.13
2023-12-14T03:29:55.625Z,4.40
2023-12-14T03:32:22.335Z,4.70
2023-12-14T03:34:49.123Z,4.88
2023-12-14T03:37:15.901Z,4.38
2023-12-14T03:39:42.619Z,4.50
2023-12-14T03:42:09.328Z,4.20
2023-12-14T03:44:36.073Z,4.57
2023-12-14T03:47:02.858Z,4.57
2023-12-14T03:49:29.600Z,4.28
2023-12-14T03:51:56.319Z,4.70
2023-12-14T03:54:23.059Z,4.75
2023-12-14T03:56:49.830Z,5.00
2023-12-14T03:59:16.904Z,5.13
2023-12-14T04:01:43.694Z,4.35
2023-12-14T04:04:10.477Z,4.80
2023-12-14T04:06:37.189Z,5.13
2023-12-14T04:09:03.968Z,4.95
2023-12-14T04:11:30.683Z,5.22
2023-12-14T04:13:57.471Z,5.32
2023-12-14T04:16:26.302Z,4.97
2023-12-14T04:18:53.427Z,4.80
2023-12-14T04:21:20.186Z,4.93
2023-12-14T04:23:47.051Z,5.53
2023-12-14T04:26:15.344Z,5.40
2023-12-14T04:28:44.868Z,4.90
2023-12-14T04:31:12.399Z,5.43
2023-12-14T04:33:39.233Z,5.68
2023-12-14T04:36:06.248Z,8.00
2023-12-14T04:38:32.963Z,9.38
2023-12-14T04:40:59.734Z,10.77
2023-12-14T04:43:26.499Z,8.95
2023-12-14T04:45:53.234Z,9.13
2023-12-14T04:48:20.016Z,9.43
2023-12-14T04:50:47.177Z,7.90
2023-12-14T04:53:13.950Z,6.68
2023-12-14T04:55:41.882Z,6.45
2023-12-14T04:58:09.679Z,6.10
2023-12-14T05:00:36.441Z,7.40
2023-12-14T05:03:03.243Z,7.55
2023-12-14T05:05:30.016Z,7.10
2023-12-14T05:07:56.891Z,7.43
2023-12-14T05:10:23.687Z,7.78
2023-12-14T05:12:50.436Z,8.25
2023-12-14T05:15:17.266Z,6.35
2023-12-14T05:17:46.076Z,6.43
2023-12-14T05:20:12.953Z,5.78
2023-12-14T05:22:40.333Z,6.70
2023-12-14T05:25:07.398Z,7.68
2023-12-14T05:27:34.193Z,6.72
2023-12-14T05:30:00.907Z,6.80
2023-12-14T05:32:27.680Z,7.05
2023-12-14T05:34:54.462Z,7.18
2023-12-14T05:37:21.204Z,7.53
2023-12-14T05:39:48.048Z,6.75
2023-12-14T05:42:18.486Z,7.45
2023-12-14T05:44:48.036Z,7.75
2023-12-14T05:47:14.928Z,6.90
2023-12-14T05:49:45.713Z,6.55
2023-12-14T05:52:12.801Z,6.63
2023-12-14T05:54:40.930Z,6.82
2023-12-14T05:57:07.857Z,7.05
2023-12-14T05:59:34.606Z,13.75
2023-12-14T06:02:02.203Z,15.10
2023-12-14T06:04:29.276Z,12.10
2023-12-14T06:06:56.024Z,8.82
2023-12-14T06:09:26.655Z,7.75
2023-12-14T06:11:53.490Z,7.93
2023-12-14T06:14:20.411Z,7.65
2023-12-14T06:16:47.406Z,8.32
2023-12-14T06:19:14.229Z,7.43
2023-12-14T06:21:41.921Z,7.97
2023-12-14T06:24:08.738Z,7.20
2023-12-14T06:26:35.517Z,6.43
2023-12-14T06:29:02.414Z,7.70
2023-12-14T06:31:29.245Z,8.07
2023-12-14T06:34:01.034Z,7.50
2023-12-14T06:36:30.737Z,7.45
2023-12-14T06:38:59.004Z,7.07
2023-12-14T06:41:26.353Z,7.70
2023-12-14T06:43:55.017Z,7.95
2023-12-14T06:46:22.109Z,8.43
2023-12-14T06:48:49.186Z,9.57
2023-12-14T06:51:16.044Z,9.60
2023-12-14T06:53:44.479Z,8.45
2023-12-14T06:56:12.313Z,8.80
2023-12-14T06:58:43.416Z,7.25
2023-12-14T07:01:17.462Z,7.20
2023-12-14T07:03:45.731Z,7.85
2023-12-14T07:06:17.116Z,8.52
2023-12-14T07:08:44.206Z,8.68
2023-12-14T07:11:11.824Z,7.80
2023-12-14T07:13:39.290Z,8.52
2023-12-14T07:16:08.980Z,7.40
2023-12-14T07:18:37.000Z,7.38
2023-12-14T07:21:04.828Z,8.85
2023-12-14T07:23:31.597Z,8.68
2023-12-14T07:26:01.772Z,9.50
2023-12-14T07:28:29.892Z,8.98
2023-12-14T07:30:56.779Z,9.50
2023-12-14T07:33:23.872Z,7.47
2023-12-14T07:35:50.659Z,7.40
2023-12-14T07:38:17.512Z,10.60
2023-12-14T07:40:44.351Z,12.82
2023-12-14T07:43:11.113Z,10.73
2023-12-14T07:45:38.000Z,9.60
2023-12-14T07:48:07.639Z,8.05
2023-12-14T07:50:34.480Z,8.52
2023-12-14T07:53:01.230Z,8.00
2023-12-14T07:55:27.986Z,8.05
2023-12-14T07:57:54.723Z,9.48
2023-12-14T08:00:21.513Z,9.18
2023-12-14T08:02:48.240Z,9.18
2023-12-14T08:05:15.061Z,8.13
2023-12-14T08:07:41.960Z,7.55
2023-12-14T08:10:09.228Z,7.30
2023-12-14T08:12:36.363Z,7.18
2023-12-14T08:15:03.529Z,9.73
2023-12-14T08:17:30.334Z,7.60
2023-12-14T08:19:57.167Z,7.50
2023-12-14T08:22:24.208Z,7.40
2023-12-14T08:24:51.244Z,7.85
2023-12-14T08:27:17.982Z,10.27
2023-12-14T08:29:46.551Z,8.23
2023-12-14T08:32:13.595Z,6.88
2023-12-14T08:34:42.015Z,6.25
2023-12-14T08:37:09.151Z,6.88
2023-12-14T08:39:36.000Z,7.75
2023-12-14T08:42:02.773Z,7.07
2023-12-14T08:44:29.509Z,9.98
2023-12-14T08:46:56.384Z,7.90
2023-12-14T08:49:24.541Z,6.75
2023-12-14T08:51:51.698Z,7.50
2023-12-14T08:54:18.628Z,9.25
2023-12-14T08:56:46.543Z,10.25
2023-12-14T08:59:13.423Z,8.60
2023-12-14T09:01:40.687Z,7.05
2023-12-14T09:04:07.573Z,8.57
2023-12-14T09:06:34.450Z,11.80
2023-12-14T09:09:01.218Z,9.57
2023-12-14T09:11:28.001Z,8.40
2023-12-14T09:13:54.808Z,6.93
2023-12-14T09:16:21.649Z,6.85
2023-12-14T09:18:48.585Z,6.68
2023-12-14T09:21:16.186Z,6.93
2023-12-14T09:23:43.246Z,6.53
2023-12-14T09:26:11.731Z,6.45
2023-12-14T09:28:38.672Z,5.50
2023-12-14T09:31:08.834Z,6.07
2023-12-14T09:33:36.328Z,6.65
2023-12-14T09:36:03.510Z,5.72
2023-12-14T09:38:30.269Z,5.10
2023-12-14T09:40:57.914Z,5.60
2023-12-14T09:43:24.926Z,4.78
2023-12-14T09:45:52.975Z,4.70
2023-12-14T09:48:21.575Z,5.18
2023-12-14T09:50:49.351Z,4.30
2023-12-14T09:53:16.242Z,4.82
2023-12-14T09:55:43.053Z,4.45
2023-12-14T09:58:12.065Z,4.95
2023-12-14T10:00:40.686Z,5.20
2023-12-14T10:03:22.507Z,5.47
2023-12-14T10:05:50.306Z,4.72
2023-12-14T10:08:18.033Z,4.40
2023-12-14T10:10:45.899Z,5.00
2023-12-14T10:13:16.978Z,4.65
2023-12-14T10:15:48.558Z,4.57
2023-12-14T10:18:26.053Z,4.65
2023-12-14T10:20:53.503Z,4.65
2023-12-14T10:23:21.136Z,4.38
2023-12-14T10:25:48.130Z,3.70
2023-12-14T10:28:15.384Z,3.90
2023-12-14T10:30:45.337Z,3.20
2023-12-14T10:33:12.144Z,3.05
2023-12-14T10:35:39.151Z,2.78
2023-12-14T10:38:07.069Z,2.80
2023-12-14T10:40:34.414Z,2.85
2023-12-14T10:43:02.233Z,2.15
2023-12-14T10:45:33.711Z,2.97
2023-12-14T10:48:02.695Z,2.40
2023-12-14T10:50:33.263Z,2.40
2023-12-14T10:53:02.545Z,2.80
2023-12-14T10:55:39.417Z,2.83
2023-12-14T10:58:06.372Z,2.35
2023-12-14T11:00:33.574Z,2.10
2023-12-14T11:03:03.989Z,2.28
2023-12-14T11:05:31.491Z,2.70
2023-12-14T11:08:07.215Z,2.10
2023-12-14T11:10:53.135Z,2.50
2023-12-14T11:13:21.749Z,2.00
2023-12-14T11:15:53.436Z,1.75
2023-12-14T11:18:27.137Z,1.52
2023-12-14T11:21:00.398Z,2.53
2023-12-14T11:23:27.213Z,4.80
2023-12-14T11:25:59.490Z,2.38
2023-12-14T11:28:28.605Z,2.10
2023-12-14T11:30:57.721Z,1.92
2023-12-14T11:33:25.567Z,1.40
2023-12-14T11:35:55.988Z,1.67
2023-12-14T11:38:24.788Z,2.28
2023-12-14T11:40:51.846Z,1.17
2023-12-14T11:43:21.725Z,0.98
2023-12-14T11:45:49.680Z,1.00
2023-12-14T11:48:16.697Z,1.52
2023-12-14T11:50:44.851Z,1.25
2023-12-14T11:53:12.786Z,1.13
2023-12-14T11:55:41.694Z,1.40
2023-12-14T11:58:09.647Z,1.15
2023-12-14T12:00:38.952Z,1.30
2023-12-14T12:03:16.900Z,1.33
2023-12-14T12:05:51.608Z,1.40
2023-12-14T12:08:21.278Z,1.02
2023-12-14T12:10:49.775Z,1.30
2023-12-14T12:13:18.990Z,1.20
2023-12-14T12:15:45.961Z,1.20
2023-12-14T12:18:19.540Z,1.00
2023-12-14T12:20:46.784Z,1.10
2023-12-14T12:23:13.596Z,1.25
2023-12-14T12:25:40.577Z,1.20
2023-12-14T12:28:07.326Z,3.38
2023-12-14T12:30:35.571Z,1.48
2023-12-14T12:33:04.138Z,1.83
2023-12-14T12:35:31.999Z,1.23
2023-12-14T12:37:58.847Z,2.72
2023-12-14T12:40:27.473Z,1.33
2023-12-14T12:42:54.431Z,1.20
2023-12-14T12:45:26.989Z,1.38
2023-12-14T12:47:53.907Z,3.50
2023-12-14T12:50:21.833Z,2.58
2023-12-14T12:52:50.290Z,2.70
2023-12-14T12:55:17.514Z,0.90
2023-12-14T12:57:44.303Z,2.47
2023-12-14T13:00:14.417Z,2.13
2023-12-14T13:02:48.544Z,2.45
2023-12-14T13:05:18.044Z,2.97
2023-12-14T13:07:47.119Z,1.50
2023-12-14T13:10:25.401Z,0.60
2023-12-14T13:12:58.051Z,3.65
2023-12-14T13:15:26.646Z,2.78
2023-12-14T13:17:53.921Z,1.20
2023-12-14T13:20:20.862Z,1.77
2023-12-14T13:22:47.792Z,1.65
2023-12-14T13:25:15.533Z,0.90
2023-12-14T13:27:44.247Z,0.70
2023-12-14T13:30:12.207Z,0.60
2023-12-14T13:32:39.427Z,1.00
2023-12-14T13:35:07.173Z,0.80
2023-12-14T13:37:34.512Z,0.70
2023-12-14T13:40:01.909Z,1.17
2023-12-14T13:42:28.684Z,1.50
2023-12-14T13:44:55.531Z,1.20
2023-12-14T13:47:22.673Z,0.80
2023-12-14T13:49:49.619Z,0.98
2023-12-14T13:52:16.370Z,1.30
2023-12-14T13:54:43.134Z,0.90
2023-12-14T13:57:09.962Z,0.98
2023-12-14T13:59:36.718Z,1.20
2023-12-14T14:02:03.707Z,1.30
2023-12-14T14:04:30.485Z,1.13
2023-12-14T14:06:57.917Z,1.30
2023-12-14T14:09:24.700Z,1.20
2023-12-14T14:11:52.264Z,1.20
2023-12-14T14:14:20.088Z,1.38
2023-12-14T14:16:47.158Z,2.25
2023-12-14T14:19:14.063Z,3.40
2023-12-14T14:21:40.872Z,2.65
2023-12-14T14:24:07.743Z,3.83
2023-12-14T14:26:34.551Z,2.45
2023-12-14T14:29:03.131Z,3.70
2023-12-14T14:31:33.963Z,2.17
2023-12-14T14:34:03.829Z,4.20
2023-12-14T14:36:30.709Z,5.47
2023-12-14T14:38:58.579Z,3.40
2023-12-14T14:41:25.980Z,9.15
2023-12-14T14:43:53.353Z,4.28
2023-12-14T14:46:20.409Z,2.17
2023-12-14T14:48:47.403Z,2.55
2023-12-14T14:51:14.442Z,4.40
2023-12-14T14:53:43.951Z,5.90
2023-12-14T14:56:11.855Z,3.45
2023-12-14T14:58:38.885Z,1.85
2023-12-14T15:01:05.889Z,1.50
2023-12-14T15:03:32.929Z,1.77
2023-12-14T15:05:59.885Z,2.20
2023-12-14T15:08:26.782Z,2.28
2023-12-14T15:10:56.788Z,2.97
2023-12-14T15:13:23.720Z,3.50
2023-12-14T15:15:50.592Z,2.85
2023-12-14T15:18:17.529Z,1.85
2023-12-14T15:20:44.438Z,2.30
2023-12-14T15:23:11.442Z,3.00
2023-12-14T15:25:38.189Z,2.90
2023-12-14T15:28:05.060Z,3.33
2023-12-14T15:30:31.852Z,2.70
2023-12-14T15:32:59.164Z,1.80
2023-12-14T15:35:26.042Z,1.60
2023-12-14T15:37:52.948Z,1.02
2023-12-14T15:40:20.044Z,1.42
2023-12-14T15:42:51.863Z,1.95
2023-12-14T15:45:21.208Z,8.32
2023-12-14T15:47:48.228Z,6.82
2023-12-14T15:50:15.334Z,7.45
2023-12-14T15:52:42.155Z,6.95
2023-12-14T15:55:09.262Z,3.40
2023-12-14T15:57:36.145Z,4.20
2023-12-14T16:00:03.805Z,4.70
2023-12-14T16:02:30.648Z,4.68
2023-12-14T16:04:57.636Z,3.25
2023-12-14T16:07:24.463Z,3.83
2023-12-14T16:09:51.190Z,6.28
2023-12-14T16:12:17.930Z,6.70
2023-12-14T16:14:44.678Z,4.97
2023-12-14T16:17:11.598Z,5.68
2023-12-14T16:19:38.368Z,7.60
2023-12-14T16:22:05.587Z,7.93
2023-12-14T16:24:44.971Z,4.50
2023-12-14T16:27:12.018Z,3.30
2023-12-14T16:29:38.795Z,2.60
2023-12-14T16:32:06.148Z,2.70
2023-12-14T16:34:33.130Z,2.65
2023-12-14T16:37:02.063Z,8.90
2023-12-14T16:39:30.878Z,6.03
2023-12-14T16:41:57.618Z,2.92
2023-12-14T16:44:25.301Z,3.75
2023-12-14T16:46:52.867Z,4.78
2023-12-14T16:49:19.738Z,3.78
2023-12-14T16:51:46.483Z,9.13
2023-12-14T16:54:13.338Z,15.10
2023-12-14T16:56:44.072Z,15.27
2023-12-14T16:59:14.514Z,25.27
2023-12-14T17:01:43.290Z,24.52
2023-12-14T17:04:14.319Z,13.77
2023-12-14T17:06:44.701Z,21.20
2023-12-14T17:09:11.499Z,5.50
2023-12-14T17:11:38.268Z,11.70
2023-12-14T17:14:05.035Z,4.53
2023-12-14T17:16:31.750Z,3.28
2023-12-14T17:18:58.513Z,5.57
2023-12-14T17:21:27.411Z,2.72
2023-12-14T17:23:55.549Z,2.30
2023-12-14T17:26:26.571Z,1.90
2023-12-14T17:28:56.536Z,2.00
2023-12-14T17:31:25.077Z,2.90
2023-12-14T17:33:52.296Z,2.80
2023-12-14T17:36:19.100Z,2.28
2023-12-14T17:38:46.119Z,2.22
2023-12-14T17:41:18.134Z,2.33
2023-12-14T17:43:45.023Z,2.20
2023-12-14T17:46:16.348Z,2.30
2023-12-14T17:48:43.126Z,2.50
2023-12-14T17:51:09.942Z,2.10
2023-12-14T17:53:37.754Z,2.28
2023-12-14T17:56:04.832Z,2.95
2023-12-14T17:58:31.622Z,3.60
2023-12-14T18:00:59.024Z,3.83
2023-12-14T18:03:29.416Z,2.53
2023-12-14T18:05:56.717Z,1.83
2023-12-14T18:08:23.519Z,2.03
2023-12-14T18:10:50.281Z,2.10
2023-12-14T18:13:18.366Z,1.70
2023-12-14T18:15:45.190Z,1.50
2023-12-14T18:18:12.134Z,1.92
2023-12-14T18:20:38.909Z,2.20
2023-12-14T18:23:06.664Z,1.90
2023-12-14T18:25:33.640Z,1.45
2023-12-14T18:28:05.083Z,1.42
2023-12-14T18:30:31.951Z,2.50
2023-12-14T18:32:58.808Z,3.00
2023-12-14T18:35:25.587Z,3.40
2023-12-14T18:37:53.117Z,3.42
2023-12-14T18:40:23.314Z,6.18
2023-12-14T18:42:50.447Z,6.97
2023-12-14T18:45:17.194Z,4.38
2023-12-14T18:47:43.962Z,5.07
2023-12-14T18:50:11.025Z,5.43
2023-12-14T18:52:37.802Z,6.70
2023-12-14T18:55:05.424Z,6.18
2023-12-14T18:57:32.213Z,4.57
2023-12-14T18:59:58.959Z,4.78
2023-12-14T19:02:28.176Z,4.60
2023-12-14T19:04:55.658Z,4.80
2023-12-14T19:07:23.584Z,4.50
2023-12-14T19:09:50.371Z,5.05
2023-12-14T19:12:17.085Z,8.60
2023-12-14T19:14:44.695Z,8.38
2023-12-14T19:17:13.214Z,4.85
2023-12-14T19:19:40.382Z,4.30
2023-12-14T19:22:07.698Z,3.28
2023-12-14T19:24:34.482Z,4.28
2023-12-14T19:27:05.343Z,4.00
2023-12-14T19:29:32.169Z,4.30
2023-12-14T19:31:58.975Z,4.10
2023-12-14T19:34:25.779Z,3.22
2023-12-14T19:36:53.662Z,3.55
2023-12-14T19:39:20.581Z,5.97
2023-12-14T19:41:48.436Z,5.80
2023-12-14T19:44:16.576Z,5.68
2023-12-14T19:46:43.524Z,6.15
2023-12-14T19:49:10.366Z,5.80
2023-12-14T19:51:40.271Z,5.18
2023-12-14T19:54:07.096Z,7.53
2023-12-14T19:56:34.081Z,5.07
2023-12-14T19:59:00.964Z,5.65
2023-12-14T20:01:34.238Z,5.60
2023-12-14T20:04:06.509Z,4.88
2023-12-14T20:06:34.396Z,5.93
2023-12-14T20:09:01.258Z,6.43
2023-12-14T20:11:28.142Z,5.70
2023-12-14T20:13:55.045Z,8.75
2023-12-14T20:16:21.925Z,8.90
2023-12-14T20:18:48.838Z,8.23
2023-12-14T20:21:15.689Z,5.85
2023-12-14T20:23:42.441Z,5.90
2023-12-14T20:26:10.290Z,7.10
2023-12-14T20:28:37.201Z,5.97
2023-12-14T20:31:04.437Z,5.70
2023-12-14T20:33:31.329Z,4.88
2023-12-14T20:35:58.139Z,4.15
2023-12-14T20:38:25.052Z,4.20
2023-12-14T20:40:51.976Z,4.57
2023-12-14T20:43:19.849Z,4.60
2023-12-14T20:45:46.739Z,4.80
2023-12-14T20:48:14.017Z,4.93
2023-12-14T20:50:40.857Z,4.65
2023-12-14T20:53:07.703Z,4.13
2023-12-14T20:55:34.466Z,4.75
2023-12-14T20:58:01.289Z,4.78
2023-12-14T21:00:31.640Z,3.67
2023-12-14T21:02:58.575Z,4.10
2023-12-14T21:05:35.179Z,4.20
2023-12-14T21:08:09.875Z,3.30
2023-12-14T21:10:36.677Z,2.75
2023-12-14T21:13:04.626Z,2.75
2023-12-14T21:15:31.331Z,2.40
2023-12-14T21:17:58.255Z,2.63
2023-12-14T21:20:25.194Z,2.90
2023-12-14T21:22:52.204Z,2.35
2023-12-14T21:25:39.352Z,2.50
2023-12-14T21:28:07.166Z,2.50
2023-12-14T21:30:35.576Z,2.67
2023-12-14T21:33:02.578Z,2.30
2023-12-14T21:35:29.555Z,2.40
2023-12-14T21:37:56.546Z,2.35
2023-12-14T21:40:23.273Z,2.30
2023-12-14T21:42:49.997Z,2.30
2023-12-14T21:45:16.707Z,2.33
2023-12-14T21:47:44.142Z,2.58
2023-12-14T21:50:11.551Z,2.40
2023-12-14T21:52:38.427Z,2.40
2023-12-14T21:55:05.926Z,2.40
2023-12-14T21:57:32.677Z,2.80
2023-12-14T21:59:59.399Z,2.17
2023-12-14T22:02:26.186Z,2.20
2023-12-14T22:04:53.001Z,2.20
2023-12-14T22:07:20.480Z,2.38
2023-12-14T22:09:47.214Z,2.40
2023-12-14T22:12:13.933Z,2.40
2023-12-14T22:14:40.639Z,2.70
2023-12-14T22:17:07.448Z,2.70
2023-12-14T22:19:37.229Z,2.97
2023-12-14T22:22:05.198Z,2.60
2023-12-14T22:24:32.076Z,2.53
2023-12-14T22:26:58.829Z,2.58
2023-12-14T22:29:25.649Z,2.50
2023-12-14T22:31:53.035Z,2.33
2023-12-14T22:34:19.830Z,2.63
2023-12-14T22:36:46.635Z,2.92
2023-12-14T22:39:13.684Z,3.10
2023-12-14T22:41:40.423Z,3.00
2023-12-14T22:44:07.632Z,2.90
2023-12-14T22:46:34.526Z,2.83
2023-12-14T22:49:01.344Z,3.45
2023-12-14T22:51:28.114Z,2.97
2023-12-14T22:53:54.897Z,3.00
2023-12-14T22:56:22.971Z,3.25
2023-12-14T22:58:50.190Z,3.22
2023-12-14T23:01:29.466Z,3.15
2023-12-14T23:03:56.336Z,3.67
2023-12-14T23:06:23.230Z,3.60
2023-12-14T23:08:50.649Z,3.40
2023-12-14T23:11:17.512Z,3.92
2023-12-14T23:13:44.327Z,3.45
2023-12-14T23:16:11.257Z,3.15
2023-12-14T23:18:38.011Z,3.70
2023-12-14T23:21:04.924Z,3.65
2023-12-14T23:23:31.785Z,3.90
2023-12-14T23:25:58.683Z,3.67
2023-12-14T23:28:25.801Z,3.20
2023-12-14T23:30:53.468Z,3.53
2023-12-14T23:33:21.186Z,3.75
2023-12-14T23:35:50.826Z,4.13
2023-12-14T23:38:18.131Z,3.83
2023-12-14T23:40:46.270Z,4.47
2023-12-14T23:43:13.164Z,4.70
2023-12-14T23:45:39.975Z,4.60
2023-12-14T23:48:06.893Z,4.38
2023-12-14T23:50:33.732Z,4.97
2023-12-14T23:53:00.515Z,5.10
2023-12-14T23:55:27.252Z,4.90
2023-12-14T23:57:53.956Z,5.05
